createdAt,value
2023-02-16T00:01:46.119Z,99706.19
2023-02-16T00:04:23.235Z,99717.66
2023-02-16T00:06:50.380Z,99709.69
2023-02-16T00:09:17.910Z,99718.31
2023-02-16T00:12:03.774Z,99706.88
2023-02-16T00:14:30.390Z,99708.50
2023-02-16T00:16:58.602Z,99710.50
2023-02-16T00:19:40.428Z,99706.38
2023-02-16T00:22:08.104Z,99716.00
2023-02-16T00:24:35.108Z,99713.84
2023-02-16T00:27:01.851Z,99709.38
2023-02-16T00:29:29.993Z,99719.00
2023-02-16T00:31:58.675Z,99712.19
2023-02-16T00:34:36.972Z,99705.22
2023-02-16T00:37:09.275Z,99706.53
2023-02-16T00:39:36.920Z,99709.03
2023-02-16T00:42:06.431Z,99706.53
2023-02-16T00:44:33.000Z,99698.91
2023-02-16T00:47:35.425Z,99701.25
2023-02-16T00:50:01.930Z,99708.03
2023-02-16T00:52:37.182Z,99703.22
2023-02-16T00:55:07.736Z,99707.38
2023-02-16T00:57:38.890Z,99704.72
2023-02-16T01:00:30.218Z,99710.50
2023-02-16T01:03:00.676Z,99709.69
2023-02-16T01:05:27.248Z,99712.34
2023-02-16T01:08:12.087Z,99710.84
2023-02-16T01:10:57.913Z,99712.03
2023-02-16T01:13:27.832Z,99712.69
2023-02-16T01:15:54.706Z,99707.38
2023-02-16T01:18:22.056Z,99703.56
2023-02-16T01:20:48.692Z,99708.03
2023-02-16T01:23:15.263Z,99701.56
2023-02-16T01:25:42.150Z,99703.88
2023-02-16T01:28:21.532Z,99698.56
2023-02-16T01:30:49.518Z,99699.75
2023-02-16T01:33:16.193Z,99699.56
2023-02-16T01:35:42.802Z,99696.56
2023-02-16T01:38:18.739Z,99691.22
2023-02-16T01:40:55.264Z,99699.22
2023-02-16T01:43:26.632Z,99700.22
2023-02-16T01:46:18.293Z,99696.56
2023-02-16T01:48:44.772Z,99704.81
2023-02-16T01:51:34.908Z,99701.16
2023-02-16T01:54:27.601Z,99693.53
2023-02-16T01:57:05.988Z,99702.81
2023-02-16T02:00:00.405Z,99701.00
2023-02-16T02:02:34.737Z,99693.88
2023-02-16T02:05:35.878Z,99700.50
2023-02-16T02:08:21.741Z,99686.41
2023-02-16T02:11:03.590Z,99687.09
2023-02-16T02:13:41.074Z,99697.53
2023-02-16T02:16:08.675Z,99689.06
2023-02-16T02:18:35.206Z,99699.81
2023-02-16T02:21:26.250Z,99699.00
2023-02-16T02:24:10.891Z,99700.63
2023-02-16T02:27:04.792Z,99698.13
2023-02-16T02:29:56.142Z,99698.94
2023-02-16T02:32:30.342Z,99701.94
2023-02-16T02:35:12.099Z,99697.47
2023-02-16T02:38:01.150Z,99683.06
2023-02-16T02:40:37.358Z,99680.19
2023-02-16T02:43:17.723Z,99680.19
2023-02-16T02:45:49.688Z,99687.31
2023-02-16T02:48:16.203Z,99680.50
2023-02-16T02:51:17.169Z,99678.38
2023-02-16T02:54:13.390Z,99682.47
2023-02-16T02:57:04.064Z,99687.09
2023-02-16T02:59:51.890Z,99683.16
2023-02-16T03:02:21.607Z,99686.47
2023-02-16T03:04:48.938Z,99675.16
2023-02-16T03:07:16.931Z,99683.16
2023-02-16T03:09:44.522Z,99683.13
2023-02-16T03:12:31.929Z,99683.25
2023-02-16T03:15:01.471Z,99679.78
2023-02-16T03:17:53.788Z,99681.59
2023-02-16T03:20:39.133Z,99691.06
2023-02-16T03:23:26.302Z,99684.13
2023-02-16T03:26:11.716Z,99684.22
2023-02-16T03:29:01.146Z,99679.72
2023-02-16T03:31:35.158Z,99676.44
2023-02-16T03:34:02.760Z,99684.16
2023-02-16T03:36:33.247Z,99686.31
2023-02-16T03:39:00.584Z,99683.47
2023-02-16T03:41:32.778Z,99689.28
2023-02-16T03:43:59.341Z,99688.22
2023-02-16T03:46:25.989Z,99692.56
2023-02-16T03:48:52.484Z,99692.88
2023-02-16T03:51:19.022Z,99706.75
2023-02-16T03:53:45.496Z,99702.09
2023-02-16T03:56:12.028Z,99707.06
2023-02-16T03:58:38.671Z,99703.41
2023-02-16T04:01:05.681Z,99708.28
2023-02-16T04:03:32.333Z,99702.53
2023-02-16T04:05:58.785Z,99702.63
2023-02-16T04:08:25.356Z,99705.63
2023-02-16T04:10:51.844Z,99697.22
2023-02-16T04:13:18.319Z,99705.31
2023-02-16T04:15:44.827Z,99708.50
2023-02-16T04:18:11.385Z,99702.56
2023-02-16T04:20:37.953Z,99701.31
2023-02-16T04:23:04.764Z,99700.00
2023-02-16T04:25:31.584Z,99697.50
2023-02-16T04:27:58.265Z,99706.16
2023-02-16T04:30:28.293Z,99701.84
2023-02-16T04:32:55.227Z,99702.97
2023-02-16T04:35:22.580Z,99701.88
2023-02-16T04:37:49.100Z,99707.44
2023-02-16T04:40:17.908Z,99707.16
2023-02-16T04:42:45.041Z,99711.22
2023-02-16T04:45:12.686Z,99716.22
2023-02-16T04:47:39.448Z,99710.16
2023-02-16T04:50:06.814Z,99710.75
2023-02-16T04:52:34.355Z,99713.09
2023-02-16T04:55:00.922Z,99713.47
2023-02-16T04:57:27.797Z,99711.38
2023-02-16T04:59:54.382Z,99711.59
2023-02-16T05:02:20.847Z,99719.59
2023-02-16T05:04:47.427Z,99728.16
2023-02-16T05:07:13.969Z,99709.09
2023-02-16T05:09:40.556Z,99716.38
2023-02-16T05:12:25.856Z,99715.31
2023-02-16T05:14:52.392Z,99718.34
2023-02-16T05:17:25.468Z,99716.97
2023-02-16T05:19:54.970Z,99722.72
2023-02-16T05:22:21.771Z,99715.03
2023-02-16T05:24:48.396Z,99726.97
2023-02-16T05:27:21.879Z,99721.22
2023-02-16T05:29:48.726Z,99725.13
2023-02-16T05:32:15.704Z,99725.16
2023-02-16T05:34:44.405Z,99720.47
2023-02-16T05:37:11.682Z,99719.81
2023-02-16T05:39:38.293Z,99710.13
2023-02-16T05:42:05.025Z,99709.44
2023-02-16T05:44:31.722Z,99719.28
2023-02-16T05:46:58.310Z,99724.94
2023-02-16T05:49:25.484Z,99712.47
2023-02-16T05:51:52.207Z,99717.06
2023-02-16T05:54:18.653Z,99725.75
2023-02-16T05:56:47.170Z,99728.06
2023-02-16T05:59:15.009Z,99731.44
2023-02-16T06:01:41.897Z,99726.75
2023-02-16T06:04:10.206Z,99734.47
2023-02-16T06:06:38.059Z,99730.41
2023-02-16T06:09:07.076Z,99725.72
2023-02-16T06:11:36.399Z,99739.16
2023-02-16T06:14:11.666Z,99740.16
2023-02-16T06:16:40.706Z,99741.31
2023-02-16T06:19:07.625Z,99741.03
2023-02-16T06:21:35.711Z,99732.34
2023-02-16T06:24:02.368Z,99742.25
2023-02-16T06:26:29.203Z,99745.06
2023-02-16T06:28:56.074Z,99743.53
2023-02-16T06:31:23.718Z,99757.28
2023-02-16T06:33:50.625Z,99757.16
2023-02-16T06:36:17.857Z,99753.28
2023-02-16T06:38:45.525Z,99755.25
2023-02-16T06:41:12.460Z,99755.09
2023-02-16T06:43:39.066Z,99753.88
2023-02-16T06:46:05.556Z,99750.44
2023-02-16T06:48:32.050Z,99754.78
2023-02-16T06:50:58.592Z,99761.44
2023-02-16T06:53:25.495Z,99756.53
2023-02-16T06:55:52.210Z,99753.59
2023-02-16T06:58:18.900Z,99747.22
2023-02-16T07:00:45.447Z,99754.47
2023-02-16T07:03:12.156Z,99763.78
2023-02-16T07:05:38.727Z,99758.06
2023-02-16T07:08:05.326Z,99751.72
2023-02-16T07:10:47.470Z,99760.00
2023-02-16T07:13:16.244Z,99757.19
2023-02-16T07:15:42.756Z,99758.88
2023-02-16T07:18:09.454Z,99765.75
2023-02-16T07:20:36.000Z,99766.31
2023-02-16T07:23:02.452Z,99764.41
2023-02-16T07:25:29.011Z,99782.94
2023-02-16T07:27:55.462Z,99764.66
2023-02-16T07:30:22.534Z,99770.41
2023-02-16T07:32:49.390Z,99772.28
2023-02-16T07:35:15.938Z,99768.88
2023-02-16T07:37:42.432Z,99767.91
2023-02-16T07:40:09.461Z,99777.34
2023-02-16T07:42:36.067Z,99778.06
2023-02-16T07:45:02.628Z,99782.22
2023-02-16T07:47:29.137Z,99780.75
2023-02-16T07:49:55.584Z,99779.81
2023-02-16T07:52:22.209Z,99778.81
2023-02-16T07:54:48.724Z,99783.25
2023-02-16T07:57:15.250Z,99791.66
2023-02-16T07:59:42.168Z,99788.13
2023-02-16T08:02:15.963Z,99801.72
2023-02-16T08:04:43.690Z,99786.03
2023-02-16T08:07:12.977Z,99779.47
2023-02-16T08:09:40.723Z,99792.19
2023-02-16T08:12:15.449Z,99788.00
2023-02-16T08:14:42.284Z,99789.41
2023-02-16T08:17:09.545Z,99800.38
2023-02-16T08:19:37.330Z,99802.25
2023-02-16T08:22:04.861Z,99802.31
2023-02-16T08:24:31.450Z,99803.91
2023-02-16T08:26:57.921Z,99789.69
2023-02-16T08:29:24.488Z,99799.94
2023-02-16T08:31:52.172Z,99793.25
2023-02-16T08:34:20.410Z,99797.59
2023-02-16T08:36:52.960Z,99800.59
2023-02-16T08:39:21.580Z,99800.53
2023-02-16T08:41:49.793Z,99796.59
2023-02-16T08:44:18.049Z,99795.91
2023-02-16T08:46:47.539Z,99797.31
2023-02-16T08:49:17.443Z,99790.41
2023-02-16T08:51:47.175Z,99790.69
2023-02-16T08:54:29.951Z,99786.59
2023-02-16T08:56:58.966Z,99782.69
2023-02-16T08:59:28.432Z,99788.06
2023-02-16T09:01:56.133Z,99786.81
2023-02-16T09:04:24.441Z,99780.94
2023-02-16T09:06:52.328Z,99781.81
2023-02-16T09:09:19.852Z,99775.03
2023-02-16T09:11:46.847Z,99778.28
2023-02-16T09:14:13.621Z,99783.19
2023-02-16T09:16:45.424Z,99786.66
2023-02-16T09:19:14.891Z,99769.16
2023-02-16T09:21:42.100Z,99770.19
2023-02-16T09:24:09.120Z,99765.44
2023-02-16T09:26:38.541Z,99767.50
2023-02-16T09:29:07.086Z,99782.41
2023-02-16T09:31:37.191Z,99770.41
2023-02-16T09:34:14.140Z,99778.00
2023-02-16T09:36:40.697Z,99777.50
2023-02-16T09:39:08.134Z,99785.13
2023-02-16T09:41:40.726Z,99787.47
2023-02-16T09:44:19.172Z,99793.34
2023-02-16T09:46:47.046Z,99783.59
2023-02-16T09:49:25.156Z,99788.72
2023-02-16T09:52:19.491Z,99777.25
2023-02-16T09:54:53.227Z,99778.22
2023-02-16T09:57:58.379Z,99777.47
2023-02-16T10:00:29.989Z,99758.50
2023-02-16T10:03:05.551Z,99764.97
2023-02-16T10:05:51.912Z,99763.78
2023-02-16T10:08:27.533Z,99751.69
2023-02-16T10:11:40.250Z,99756.16
2023-02-16T10:14:46.892Z,99751.97
2023-02-16T10:17:32.321Z,99753.91
2023-02-16T10:20:07.450Z,99764.75
2023-02-16T10:22:40.687Z,99764.16
2023-02-16T10:25:17.007Z,99762.66
2023-02-16T10:27:46.992Z,99756.44
2023-02-16T10:30:19.596Z,99760.13
2023-02-16T10:32:54.713Z,99762.72
2023-02-16T10:35:41.087Z,99749.25
2023-02-16T10:38:18.210Z,99752.94
2023-02-16T10:41:22.089Z,99746.25
2023-02-16T10:44:01.599Z,99746.97
2023-02-16T10:46:36.800Z,99744.53
2023-02-16T10:49:03.422Z,99746.00
2023-02-16T10:51:37.636Z,99735.09
2023-02-16T10:54:08.829Z,99723.25
2023-02-16T10:56:44.167Z,99735.09
2023-02-16T10:59:22.890Z,99728.59
2023-02-16T11:01:54.729Z,99724.66
2023-02-16T11:04:35.692Z,99727.78
2023-02-16T11:07:11.698Z,99720.41
2023-02-16T11:09:40.765Z,99717.00
2023-02-16T11:12:35.302Z,99723.91
2023-02-16T11:15:04.736Z,99711.59
2023-02-16T11:17:47.146Z,99710.97
2023-02-16T11:20:34.290Z,99707.22
2023-02-16T11:23:13.050Z,99701.81
2023-02-16T11:25:40.027Z,99699.13
2023-02-16T11:28:06.991Z,99696.28
2023-02-16T11:30:36.189Z,99699.09
2023-02-16T11:33:05.562Z,99676.69
2023-02-16T11:35:40.983Z,99680.00
2023-02-16T11:38:28.015Z,99673.84
2023-02-16T11:40:56.088Z,99667.41
2023-02-16T11:43:28.361Z,99678.13
2023-02-16T11:46:17.684Z,99662.75
2023-02-16T11:48:45.617Z,99665.59
2023-02-16T11:51:15.300Z,99664.81
2023-02-16T11:53:43.628Z,99658.44
2023-02-16T11:56:23.462Z,99652.53
2023-02-16T11:59:22.427Z,99655.63
2023-02-16T12:02:00.560Z,99652.72
2023-02-16T12:04:57.826Z,99651.75
2023-02-16T12:07:46.902Z,99645.44
2023-02-16T12:10:20.914Z,99642.59
2023-02-16T12:13:18.375Z,99642.13
2023-02-16T12:16:05.182Z,99632.38
2023-02-16T12:18:45.346Z,99637.34
2023-02-16T12:21:32.927Z,99619.69
2023-02-16T12:24:17.937Z,99623.44
2023-02-16T12:26:52.058Z,99618.72
2023-02-16T12:29:45.890Z,99614.88
2023-02-16T12:32:30.137Z,99609.84
2023-02-16T12:35:21.822Z,99607.59
2023-02-16T12:37:54.255Z,99608.22
2023-02-16T12:40:26.645Z,99615.94
2023-02-16T12:42:53.142Z,99606.28
2023-02-16T12:45:23.822Z,99608.00
2023-02-16T12:47:57.780Z,99598.63
2023-02-16T12:50:31.117Z,99589.66
2023-02-16T12:53:03.338Z,99591.72
2023-02-16T12:55:29.779Z,99590.66
2023-02-16T12:58:14.935Z,99590.00
2023-02-16T13:00:48.636Z,99580.19
2023-02-16T13:03:41.456Z,99581.59
2023-02-16T13:06:08.330Z,99587.50
2023-02-16T13:09:16.356Z,99579.22
2023-02-16T13:11:42.848Z,99578.91
2023-02-16T13:14:18.587Z,99577.72
2023-02-16T13:16:51.086Z,99577.97
2023-02-16T13:19:18.508Z,99573.97
2023-02-16T13:21:51.921Z,99567.06
2023-02-16T13:24:24.619Z,99570.81
2023-02-16T13:26:54.128Z,99570.47
2023-02-16T13:30:04.374Z,99568.13
2023-02-16T13:32:45.869Z,99566.22
2023-02-16T13:35:31.096Z,99559.06
2023-02-16T13:38:04.052Z,99566.25
2023-02-16T13:40:52.174Z,99558.19
2023-02-16T13:43:34.792Z,99559.75
2023-02-16T13:46:08.359Z,99560.00
2023-02-16T13:48:53.513Z,99554.56
2023-02-16T13:51:23.328Z,99550.66
2023-02-16T13:53:59.329Z,99549.72
2023-02-16T13:56:29.415Z,99542.66
2023-02-16T13:58:58.068Z,99538.56
2023-02-16T14:01:42.953Z,99538.28
2023-02-16T14:04:32.289Z,99545.78
2023-02-16T14:07:07.966Z,99542.53
2023-02-16T14:09:37.416Z,99549.09
2023-02-16T14:12:14.240Z,99546.16
2023-02-16T14:14:56.576Z,99540.75
2023-02-16T14:17:27.463Z,99541.50
2023-02-16T14:20:05.016Z,99541.75
2023-02-16T14:22:45.652Z,99534.84
2023-02-16T14:25:22.220Z,99527.75
2023-02-16T14:28:03.782Z,99533.72
2023-02-16T14:30:57.180Z,99534.13
2023-02-16T14:33:45.369Z,99525.28
2023-02-16T14:36:16.877Z,99528.25
2023-02-16T14:38:51.882Z,99520.53
2023-02-16T14:41:29.272Z,99521.28
2023-02-16T14:44:25.702Z,99521.88
2023-02-16T14:47:03.919Z,99520.56
2023-02-16T14:50:06.927Z,99517.25
2023-02-16T14:53:12.544Z,99509.63
2023-02-16T14:56:01.413Z,99509.28
2023-02-16T14:58:41.387Z,99520.44
2023-02-16T15:01:14.056Z,99520.84
2023-02-16T15:03:42.155Z,99526.97
2023-02-16T15:06:18.697Z,99522.03
2023-02-16T15:08:58.529Z,99519.94
2023-02-16T15:11:56.690Z,99531.53
2023-02-16T15:14:25.694Z,99536.19
2023-02-16T15:16:53.935Z,99537.03
2023-02-16T15:19:28.461Z,99539.00
2023-02-16T15:22:19.005Z,99545.66
2023-02-16T15:25:07.937Z,99544.97
2023-02-16T15:27:34.384Z,99533.19
2023-02-16T15:30:21.626Z,99534.16
2023-02-16T15:33:14.108Z,99530.19
2023-02-16T15:35:43.304Z,99536.41
2023-02-16T15:38:31.858Z,99533.00
2023-02-16T15:41:02.115Z,99531.81
2023-02-16T15:43:36.030Z,99523.81
2023-02-16T15:46:04.903Z,99524.69
2023-02-16T15:48:33.635Z,99522.97
2023-02-16T15:51:20.958Z,99517.25
2023-02-16T15:54:19.766Z,99517.00
2023-02-16T15:56:48.561Z,99513.41
2023-02-16T15:59:39.507Z,99510.53
2023-02-16T16:02:24.703Z,99504.34
2023-02-16T16:04:57.465Z,99511.25
2023-02-16T16:07:31.584Z,99507.31
2023-02-16T16:10:00.194Z,99510.91
2023-02-16T16:12:28.195Z,99511.22
2023-02-16T16:15:00.510Z,99518.28
2023-02-16T16:17:30.347Z,99520.41
2023-02-16T16:20:35.913Z,99518.78
2023-02-16T16:23:04.540Z,99514.09
2023-02-16T16:25:34.111Z,99514.75
2023-02-16T16:28:01.944Z,99524.16
2023-02-16T16:30:32.391Z,99527.09
2023-02-16T16:33:11.927Z,99528.31
2023-02-16T16:35:44.506Z,99519.16
2023-02-16T16:38:29.252Z,99526.72
2023-02-16T16:40:58.516Z,99535.88
2023-02-16T16:43:34.855Z,99527.94
2023-02-16T16:46:07.561Z,99527.28
2023-02-16T16:48:36.431Z,99522.91
2023-02-16T16:51:11.950Z,99522.34
2023-02-16T16:53:51.575Z,99519.25
2023-02-16T16:56:18.765Z,99524.44
2023-02-16T16:58:50.614Z,99522.34
2023-02-16T17:01:18.327Z,99520.50
2023-02-16T17:03:44.956Z,99528.34
2023-02-16T17:06:11.901Z,99520.06
2023-02-16T17:08:38.424Z,99529.72
2023-02-16T17:11:05.264Z,99530.06
2023-02-16T17:13:31.775Z,99537.44
2023-02-16T17:16:07.036Z,99533.59
2023-02-16T17:18:34.531Z,99536.88
2023-02-16T17:21:01.056Z,99535.81
2023-02-16T17:23:27.597Z,99535.59
2023-02-16T17:25:54.077Z,99540.41
2023-02-16T17:28:21.153Z,99539.63
2023-02-16T17:30:47.995Z,99539.13
2023-02-16T17:33:14.580Z,99542.56
2023-02-16T17:35:43.505Z,99533.13
2023-02-16T17:38:17.980Z,99545.09
2023-02-16T17:40:47.940Z,99549.38
2023-02-16T17:43:16.023Z,99559.16
2023-02-16T17:45:42.934Z,99561.22
2023-02-16T17:48:20.994Z,99556.84
2023-02-16T17:50:49.263Z,99563.00
2023-02-16T17:53:17.194Z,99554.19
2023-02-16T17:55:45.060Z,99557.50
2023-02-16T17:58:11.940Z,99557.59
2023-02-16T18:00:39.096Z,99555.63
2023-02-16T18:03:06.063Z,99557.25
2023-02-16T18:05:32.997Z,99564.56
2023-02-16T18:07:59.548Z,99559.34
2023-02-16T18:10:42.324Z,99559.88
2023-02-16T18:13:11.596Z,99554.50
2023-02-16T18:15:40.091Z,99558.81
2023-02-16T18:18:07.938Z,99558.91
2023-02-16T18:20:34.922Z,99563.84
2023-02-16T18:23:01.430Z,99559.31
2023-02-16T18:25:28.082Z,99574.16
2023-02-16T18:27:54.552Z,99564.72
2023-02-16T18:30:21.366Z,99569.94
2023-02-16T18:32:47.843Z,99573.63
2023-02-16T18:35:17.140Z,99569.94
2023-02-16T18:37:45.305Z,99574.16
2023-02-16T18:40:15.459Z,99574.16
2023-02-16T18:42:42.293Z,99575.78
2023-02-16T18:45:09.219Z,99583.75
2023-02-16T18:47:36.547Z,99585.75
2023-02-16T18:50:04.722Z,99599.31
2023-02-16T18:52:31.261Z,99598.31
2023-02-16T18:54:57.744Z,99595.75
2023-02-16T18:57:24.309Z,99603.31
2023-02-16T18:59:53.725Z,99598.34
2023-02-16T19:02:20.220Z,99595.50
2023-02-16T19:04:46.784Z,99596.50
2023-02-16T19:07:13.340Z,99593.34
2023-02-16T19:09:39.909Z,99595.00
2023-02-16T19:12:06.555Z,99585.13
2023-02-16T19:14:33.161Z,99593.34
2023-02-16T19:16:59.766Z,99594.44
2023-02-16T19:19:26.262Z,99600.78
2023-02-16T19:21:52.742Z,99596.38
2023-02-16T19:24:19.300Z,99602.28
2023-02-16T19:26:45.795Z,99613.34
2023-02-16T19:29:12.843Z,99615.69
2023-02-16T19:31:39.527Z,99615.69
2023-02-16T19:34:06.214Z,99616.09
2023-02-16T19:36:34.137Z,99612.53
2023-02-16T19:39:02.203Z,99618.94
2023-02-16T19:41:31.898Z,99624.75
2023-02-16T19:43:58.460Z,99626.00
2023-02-16T19:46:26.200Z,99628.09
2023-02-16T19:48:55.306Z,99621.06
2023-02-16T19:51:22.143Z,99621.31
2023-02-16T19:53:49.232Z,99624.44
2023-02-16T19:56:19.044Z,99621.50
2023-02-16T19:58:46.052Z,99623.19
2023-02-16T20:01:17.837Z,99628.00
2023-02-16T20:03:44.976Z,99619.78
2023-02-16T20:06:21.249Z,99625.53
2023-02-16T20:08:49.715Z,99628.16
2023-02-16T20:11:19.046Z,99628.84
2023-02-16T20:13:46.387Z,99631.16
2023-02-16T20:16:13.412Z,99629.09
2023-02-16T20:18:40.457Z,99635.19
2023-02-16T20:21:19.042Z,99648.09
2023-02-16T20:23:47.546Z,99642.38
2023-02-16T20:26:21.208Z,99638.84
2023-02-16T20:28:49.149Z,99649.78
2023-02-16T20:31:22.403Z,99644.03
2023-02-16T20:33:49.590Z,99641.53
2023-02-16T20:36:16.895Z,99628.28
2023-02-16T20:38:44.106Z,99636.28
2023-02-16T20:41:11.052Z,99639.78
2023-02-16T20:43:38.148Z,99631.13
2023-02-16T20:46:06.323Z,99628.16
2023-02-16T20:48:34.201Z,99636.19
2023-02-16T20:51:03.706Z,99630.44
2023-02-16T20:53:30.498Z,99632.25
2023-02-16T20:56:08.286Z,99639.94
2023-02-16T20:58:36.757Z,99636.72
2023-02-16T21:01:10.080Z,99631.28
2023-02-16T21:03:36.549Z,99626.19
2023-02-16T21:06:03.901Z,99627.16
2023-02-16T21:08:30.587Z,99631.28
2023-02-16T21:10:57.093Z,99632.34
2023-02-16T21:13:23.634Z,99626.47
2023-02-16T21:15:50.216Z,99635.06
2023-02-16T21:18:16.861Z,99631.56
2023-02-16T21:20:43.950Z,99633.88
2023-02-16T21:23:10.572Z,99633.50
2023-02-16T21:25:38.107Z,99638.69
2023-02-16T21:28:04.653Z,99640.34
2023-02-16T21:30:31.363Z,99646.75
2023-02-16T21:32:57.900Z,99643.44
2023-02-16T21:35:24.395Z,99645.56
2023-02-16T21:37:50.846Z,99651.09
2023-02-16T21:40:36.101Z,99649.22
2023-02-16T21:43:02.717Z,99645.31
2023-02-16T21:45:29.225Z,99651.31
2023-02-16T21:48:14.189Z,99643.03
2023-02-16T21:50:41.522Z,99651.50
2023-02-16T21:53:09.136Z,99632.94
2023-02-16T21:55:55.510Z,99636.84
2023-02-16T21:58:24.527Z,99633.16
2023-02-16T22:00:51.908Z,99632.72
2023-02-16T22:03:19.098Z,99627.38
2023-02-16T22:05:45.743Z,99623.88
2023-02-16T22:08:14.440Z,99619.13
2023-02-16T22:10:41.229Z,99626.78
2023-02-16T22:13:07.835Z,99620.56
2023-02-16T22:15:38.123Z,99619.34
2023-02-16T22:18:05.922Z,99621.22
2023-02-16T22:20:32.906Z,99612.53
2023-02-16T22:22:59.368Z,99616.25
2023-02-16T22:25:26.007Z,99608.84
2023-02-16T22:27:52.602Z,99612.16
2023-02-16T22:30:19.402Z,99608.63
2023-02-16T22:32:45.937Z,99616.28
2023-02-16T22:35:12.783Z,99615.47
2023-02-16T22:37:39.301Z,99612.97
2023-02-16T22:40:06.508Z,99613.59
2023-02-16T22:42:33.026Z,99611.75
2023-02-16T22:44:59.466Z,99615.03
2023-02-16T22:47:25.991Z,99605.38
2023-02-16T22:49:52.427Z,99609.28
2023-02-16T22:52:18.939Z,99605.97
2023-02-16T22:54:45.466Z,99612.59
2023-02-16T22:57:12.001Z,99608.88
2023-02-16T22:59:38.516Z,99613.00
2023-02-16T23:02:05.012Z,99618.78
2023-02-16T23:04:31.537Z,99616.09
2023-02-16T23:06:58.094Z,99623.53
2023-02-16T23:09:24.607Z,99629.50
2023-02-16T23:11:51.452Z,99624.13
2023-02-16T23:14:19.442Z,99631.13
2023-02-16T23:16:49.415Z,99622.69
2023-02-16T23:19:19.519Z,99622.91
2023-02-16T23:21:47.874Z,99627.22
2023-02-16T23:24:17.340Z,99624.97
2023-02-16T23:26:43.893Z,99620.44
2023-02-16T23:29:11.124Z,99630.13
2023-02-16T23:31:39.468Z,99624.13
2023-02-16T23:34:07.524Z,99618.34
2023-02-16T23:36:36.209Z,99628.25
2023-02-16T23:39:05.026Z,99630.09
2023-02-16T23:41:31.546Z,99632.16
2023-02-16T23:44:00.655Z,99629.50
2023-02-16T23:46:27.745Z,99631.16
2023-02-16T23:48:54.364Z,99621.25
2023-02-16T23:51:20.823Z,99629.06
2023-02-16T23:53:47.412Z,99627.44
2023-02-16T23:56:20.703Z,99624.94
2023-02-16T23:58:48.321Z,99630.09
